| time (UTC) | temp C | wind direction | speed KPH | gust KPH | rain 1hr cm | rain 24hr cm | rain mn cm | humidity % | barometer mb |
| 20260506184913 | 15 | 96 | 8.0 | 20.9 | 0.00 | 1.19 | 1.19 | 96 | 1015.4 |
| 20260506184410 | 15 | 62 | 6.4 | 9.7 | 0.00 | 1.19 | 1.19 | 96 | 1015.8 |
| 20260506183908 | 15 | 95 | 8.0 | 9.7 | 0.00 | 1.19 | 1.19 | 96 | 1015.9 |
| 20260506183402 | 15 | 48 | 8.0 | 24.1 | 0.00 | 1.19 | 1.19 | 96 | 1015.9 |
| 20260506182900 | 15 | 33 | 14.5 | 17.7 | 0.00 | 1.19 | 1.19 | 96 | 1015.8 |
| 20260506182357 | 15 | 99 | 4.8 | 11.3 | 0.00 | 1.19 | 1.19 | 96 | 1016.1 |
| 20260506181854 | 15 | 65 | 6.4 | 17.7 | 0.00 | 1.19 | 1.19 | 96 | 1016.4 |
| 20260506181352 | 15 | 20 | 8.0 | 14.5 | 0.00 | 1.19 | 1.19 | 96 | 1016.1 |
| 20260506180849 | 16 | 64 | 6.4 | 11.3 | 0.00 | 1.19 | 1.19 | 96 | 1016.2 |
| 20260506180345 | 16 | 64 | 4.8 | 9.7 | 0.00 | 1.19 | 1.19 | 96 | 1016.2 |
| 20260506175842 | 16 | 41 | 8.0 | 17.7 | 0.00 | 1.19 | 1.19 | 96 | 1016.5 |
| 20260506175338 | 16 | 41 | 6.4 | 6.4 | 0.00 | 1.19 | 1.19 | 96 | 1016.5 |
| 20260506174836 | 16 | 88 | 3.2 | 6.4 | 0.00 | 1.19 | 1.19 | 96 | 1016.5 |
| 20260506174333 | 16 | 96 | 3.2 | 9.7 | 0.00 | 1.19 | 1.19 | 96 | 1016.6 |
| 20260506173831 | 16 | 34 | 8.0 | 14.5 | 0.00 | 1.19 | 1.19 | 96 | 1016.6 |
| 20260506173327 | 16 | 74 | 3.2 | 9.7 | 0.00 | 1.19 | 1.19 | 96 | 1016.7 |
| 20260506172824 | 16 | 62 | 8.0 | 11.3 | 0.00 | 1.19 | 1.19 | 96 | 1016.6 |
| 20260506172321 | 16 | 47 | 3.2 | 11.3 | 0.30 | 1.19 | 1.19 | 96 | 1016.4 |
| 20260506171818 | 16 | 73 | 4.8 | 14.5 | 1.02 | 1.19 | 1.19 | 96 | 1016.5 |
| 20260506171315 | 17 | 71 | 4.8 | 17.7 | 2.46 | 1.12 | 1.12 | 96 | 1016.3 |
| 20260506170813 | 17 | 70 | 6.4 | 14.5 | 3.53 | 1.02 | 1.02 | 96 | 1016.1 |
| 20260506170309 | 17 | 81 | 6.4 | 11.3 | 3.30 | 0.71 | 0.71 | 96 | 1016.2 |
| 20260506165808 | 18 | 68 | 6.4 | 20.9 | 1.85 | 0.41 | 0.41 | 96 | 1015.9 |
| 20260506165306 | 18 | 96 | 0.0 | 3.2 | 0.18 | 0.13 | 0.13 | 95 | 1016.2 |
| 20260506164801 | 18 | 88 | 3.2 | 6.4 | 0.13 | 0.10 | 0.10 | 95 | 1016.0 |
| 20260506164258 | 18 | 78 | 16.1 | 17.7 | 0.53 | 0.10 | 0.10 | 94 | 1016.0 |
| 20260506163755 | 19 | 78 | 6.4 | 9.7 | 0.43 | 0.08 | 0.08 | 92 | 1015.3 |
| 20260506163250 | 20 | 73 | 3.2 | 9.7 | 0.00 | 0.00 | 0.00 | 91 | 1015.3 |
| 20260506162746 | 21 | 55 | 12.9 | 14.5 | 0.00 | 0.00 | 0.00 | 89 | 1015.1 |
| 20260506162244 | 22 | 27 | 4.8 | 11.3 | 0.00 | 0.00 | 0.00 | 89 | 1015.2 |
| 20260506161741 | 24 | 53 | 9.7 | 14.5 | 0.00 | 0.00 | 0.00 | 87 | 1015.0 |
| 20260506161239 | 25 | 99 | 0.0 | 9.7 | 0.00 | 0.00 | 0.00 | 85 | 1014.8 |
| 20260506160736 | 26 | 129 | 0.0 | 6.4 | 0.00 | 0.00 | 0.00 | 86 | 1014.6 |
| 20260506160232 | 25 | 128 | 3.2 | 9.7 | 0.00 | 0.00 | 0.00 | 86 | 1014.7 |
| 20260506155731 | 26 | 120 | 8.0 | 11.3 | 0.00 | 0.00 | 0.00 | 86 | 1014.7 |
| 20260506155227 | 26 | 168 | 6.4 | 6.4 | 0.00 | 0.00 | 0.00 | 86 | 1014.6 |
| 20260506153335 | 25 | 135 | 8.0 | 9.7 | 0.00 | 0.00 | 0.00 | 86 | 1014.3 |
| 20260506152832 | 25 | 203 | 4.8 | 11.3 | 0.00 | 0.00 | 0.00 | 87 | 1014.2 |
| 20260506152329 | 25 | 139 | 3.2 | 11.3 | 0.00 | 0.00 | 0.00 | 88 | 1014.5 |
| 20260506151828 | 25 | 208 | 8.0 | 11.3 | 0.00 | 0.00 | 0.00 | 87 | 1014.3 |
| 20260506151324 | 25 | 147 | 0.0 | 3.2 | 0.00 | 0.00 | 0.00 | 87 | 1014.3 |
| 20260506150821 | 25 | 123 | 4.8 | 6.4 | 0.00 | 0.00 | 0.00 | 87 | 1014.2 |
| 20260506150318 | 25 | 179 | 6.4 | 17.7 | 0.00 | 0.00 | 0.00 | 88 | 1014.1 |
| 20260506145815 | 25 | 121 | 3.2 | 11.3 | 0.00 | 0.00 | 0.00 | 87 | 1014.2 |
| 20260506145311 | 25 | 177 | 8.0 | 9.7 | 0.00 | 0.00 | 0.00 | 88 | 1014.1 |
| 20260506144809 | 25 | 166 | 3.2 | 17.7 | 0.00 | 0.00 | 0.00 | 89 | 1014.1 |
| 20260506144305 | 25 | 142 | 4.8 | 11.3 | 0.00 | 0.00 | 0.00 | 89 | 1014.4 |
| 20260506143803 | 25 | 233 | 8.0 | 14.5 | 0.00 | 0.00 | 0.00 | 89 | 1014.2 |
| 20260506143300 | 24 | 218 | 8.0 | 11.3 | 0.00 | 0.00 | 0.00 | 90 | 1014.1 |
| 20260506142759 | 24 | 110 | 3.2 | 11.3 | 0.00 | 0.00 | 0.00 | 90 | 1014.2 |
| 20260506142256 | 24 | 197 | 8.0 | 11.3 | 0.00 | 0.00 | 0.00 | 90 | 1014.4 |
| 20260506141754 | 24 | 121 | 0.0 | 9.7 | 0.00 | 0.00 | 0.00 | 90 | 1014.2 |
| 20260506141252 | 24 | 140 | 3.2 | 9.7 | 0.00 | 0.00 | 0.00 | 90 | 1014.2 |
| 20260506140750 | 24 | 196 | 8.0 | 9.7 | 0.00 | 0.00 | 0.00 | 90 | 1014.3 |
| 20260506140246 | 25 | 134 | 8.0 | 11.3 | 0.00 | 0.00 | 0.00 | 90 | 1014.1 |
| 20260506135743 | 25 | 122 | 0.0 | 3.2 | 0.00 | 0.00 | 0.00 | 90 | 1014.0 |
| 20260506135239 | 24 | 104 | 4.8 | 9.7 | 0.00 | 0.00 | 0.00 | 90 | 1014.3 |
| 20260506134736 | 24 | 112 | 0.0 | 9.7 | 0.00 | 0.00 | 0.00 | 91 | 1014.0 |
| 20260506134233 | 24 | 127 | 1.6 | 3.2 | 0.00 | 0.00 | 0.00 | 92 | 1014.2 |
| 20260506133730 | 23 | 115 | 3.2 | 3.2 | 0.00 | 0.00 | 0.00 | 92 | 1014.0 |
| 20260506133226 | 23 | 113 | 1.6 | 6.4 | 0.00 | 0.00 | 0.00 | 92 | 1014.1 |
| 20260506132723 | 23 | 110 | 0.0 | 3.2 | 0.00 | 0.00 | 0.00 | 93 | 1014.2 |
| 20260506132221 | 23 | 119 | 0.0 | 3.2 | 0.00 | 0.00 | 0.00 | 93 | 1014.2 |
| 20260506131719 | 23 | 115 | 3.2 | 6.4 | 0.00 | 0.00 | 0.00 | 93 | 1014.0 |
| 20260506131214 | 23 | 111 | 0.0 | 3.2 | 0.00 | 0.00 | 0.00 | 93 | 1014.1 |
| 20260506130711 | 23 | 121 | 1.6 | 6.4 | 0.00 | 0.00 | 0.00 | 93 | 1014.2 |
| 20260506130208 | 23 | 111 | 0.0 | 0.0 | 0.00 | 0.00 | 0.00 | 93 | 1014.1 |
| 20260506125707 | 23 | 131 | 3.2 | 6.4 | 0.00 | 0.00 | 0.00 | 93 | 1014.1 |
| 20260506125204 | 23 | 132 | 1.6 | 3.2 | 0.00 | 0.00 | 0.00 | 93 | 1014.2 |
| 20260506124702 | 23 | 147 | 3.2 | 6.4 | 0.00 | 0.00 | 0.00 | 94 | 1013.9 |
| 20260506124200 | 23 | 119 | 3.2 | 9.7 | 0.00 | 0.00 | 0.00 | 94 | 1013.9 |
| 20260506123657 | 23 | 116 | 1.6 | 3.2 | 0.00 | 0.00 | 0.00 | 94 | 1014.0 |
| 20260506123155 | 23 | 116 | 3.2 | 3.2 | 0.00 | 0.00 | 0.00 | 95 | 1013.7 |
| 20260506122652 | 23 | 116 | 3.2 | 6.4 | 0.00 | 0.00 | 0.00 | 95 | 1013.6 |
| 20260506122150 | 23 | 117 | 4.8 | 6.4 | 0.00 | 0.00 | 0.00 | 95 | 1013.8 |
| 20260506121647 | 22 | 190 | 6.4 | 9.7 | 0.00 | 0.00 | 0.00 | 95 | 1013.4 |
| 20260506121143 | 22 | 121 | 1.6 | 3.2 | 0.00 | 0.00 | 0.00 | 95 | 1013.1 |
| 20260506120641 | 22 | 119 | 3.2 | 6.4 | 0.00 | 0.00 | 0.00 | 96 | 1013.0 |
| 20260506120138 | 22 | 112 | 0.0 | 6.4 | 0.00 | 0.00 | 0.00 | 96 | 1013.1 |
| 20260506115637 | 22 | 116 | 0.0 | 3.2 | 0.00 | 0.00 | 0.00 | 96 | 1013.1 |
| 20260506115134 | 22 | 112 | 0.0 | 3.2 | 0.00 | 0.00 | 0.00 | 96 | 1013.1 |
| 20260506114631 | 22 | 114 | 0.0 | 0.0 | 0.00 | 0.00 | 0.00 | 96 | 1013.2 |
| 20260506114129 | 22 | 114 | 0.0 | 3.2 | 0.00 | 0.00 | 0.00 | 96 | 1013.1 |
| 20260506113628 | 22 | 159 | 3.2 | 6.4 | 0.00 | 0.00 | 0.00 | 95 | 1013.0 |
| 20260506113125 | 22 | 115 | 1.6 | 6.4 | 0.00 | 0.00 | 0.00 | 96 | 1012.9 |
| 20260506112621 | 22 | 113 | 0.0 | 3.2 | 0.00 | 0.00 | 0.00 | 95 | 1012.9 |
| 20260506112118 | 22 | 134 | 3.2 | 3.2 | 0.00 | 0.00 | 0.00 | 95 | 1012.8 |
| 20260506111616 | 22 | 132 | 3.2 | 3.2 | 0.00 | 0.00 | 0.00 | 95 | 1012.7 |
| 20260506111114 | 22 | 126 | 4.8 | 6.4 | 0.00 | 0.00 | 0.00 | 95 | 1013.0 |
| 20260506110611 | 22 | 118 | 3.2 | 6.4 | 0.00 | 0.00 | 0.00 | 95 | 1012.4 |
| 20260506110108 | 22 | 112 | 0.0 | 6.4 | 0.00 | 0.00 | 0.00 | 95 | 1012.5 |
| 20260506105604 | 22 | 146 | 3.2 | 11.3 | 0.00 | 0.00 | 0.00 | 95 | 1012.3 |
| 20260506105101 | 22 | 118 | 0.0 | 6.4 | 0.00 | 0.00 | 0.00 | 95 | 1012.3 |
| 20260506104600 | 22 | 150 | 1.6 | 3.2 | 0.00 | 0.00 | 0.00 | 95 | 1012.3 |
| 20260506104057 | 22 | 118 | 0.0 | 9.7 | 0.00 | 0.00 | 0.00 | 95 | 1012.4 |
| 20260506103554 | 22 | 150 | 3.2 | 6.4 | 0.00 | 0.00 | 0.00 | 95 | 1012.3 |
| 20260506103050 | 22 | 169 | 6.4 | 11.3 | 0.00 | 0.00 | 0.00 | 95 | 1012.4 |
| 20260506102549 | 22 | 130 | 1.6 | 9.7 | 0.00 | 0.00 | 0.00 | 94 | 1012.1 |
| 20260506102046 | 22 | 155 | 4.8 | 11.3 | 0.00 | 0.00 | 0.00 | 94 | 1012.1 |
| 20260506101542 | 22 | 198 | 8.0 | 9.7 | 0.00 | 0.00 | 0.00 | 94 | 1012.2 |
| 20260506101040 | 22 | 113 | 3.2 | 11.3 | 0.00 | 0.00 | 0.00 | 94 | 1012.0 |
| 20260506100538 | 22 | 232 | 6.4 | 9.7 | 0.00 | 0.00 | 0.00 | 94 | 1012.1 |
| 20260506100036 | 22 | 198 | 8.0 | 9.7 | 0.00 | 0.00 | 0.00 | 94 | 1012.0 |
| 20260506095534 | 22 | 107 | 3.2 | 24.1 | 0.00 | 0.00 | 0.00 | 94 | 1011.7 |
| 20260506095030 | 22 | 127 | 6.4 | 20.9 | 0.00 | 0.00 | 0.00 | 94 | 1011.6 |
| 20260506094528 | 23 | 218 | 8.0 | 17.7 | 0.00 | 0.00 | 0.00 | 94 | 1011.7 |
| 20260506094026 | 23 | 188 | 9.7 | 11.3 | 0.00 | 0.00 | 0.00 | 93 | 1011.7 |
| 20260506093524 | 23 | 154 | 9.7 | 11.3 | 0.00 | 0.00 | 0.00 | 93 | 1011.6 |
| 20260506093021 | 23 | 92 | 4.8 | 9.7 | 0.00 | 0.00 | 0.00 | 93 | 1011.9 |
| 20260506092519 | 23 | 114 | 4.8 | 9.7 | 0.00 | 0.00 | 0.00 | 93 | 1011.6 |
| 20260506092015 | 23 | 251 | 12.9 | 14.5 | 0.00 | 0.00 | 0.00 | 93 | 1011.6 |
| 20260506091514 | 23 | 142 | 3.2 | 6.4 | 0.00 | 0.00 | 0.00 | 93 | 1011.6 |
| 20260506091011 | 23 | 148 | 11.3 | 17.7 | 0.00 | 0.00 | 0.00 | 93 | 1011.4 |
| 20260506090509 | 23 | 123 | 3.2 | 11.3 | 0.00 | 0.00 | 0.00 | 92 | 1011.5 |
| 20260506090004 | 23 | 68 | 9.7 | 20.9 | 0.00 | 0.00 | 0.00 | 92 | 1011.5 |
| 20260506085501 | 23 | 127 | 1.6 | 9.7 | 0.00 | 0.00 | 0.00 | 92 | 1011.4 |
| 20260506084958 | 23 | 128 | 6.4 | 17.7 | 0.00 | 0.00 | 0.00 | 92 | 1011.4 |
| 20260506084455 | 23 | 142 | 3.2 | 9.7 | 0.00 | 0.00 | 0.00 | 92 | 1011.4 |
| 20260506083951 | 23 | 117 | 1.6 | 9.7 | 0.00 | 0.00 | 0.00 | 92 | 1011.3 |
| 20260506083448 | 23 | 109 | 6.4 | 11.3 | 0.00 | 0.00 | 0.00 | 92 | 1011.6 |
| 20260506082945 | 23 | 112 | 3.2 | 11.3 | 0.00 | 0.00 | 0.00 | 92 | 1011.5 |
| 20260506082442 | 23 | 239 | 6.4 | 14.5 | 0.00 | 0.00 | 0.00 | 92 | 1011.3 |
| 20260506081938 | 23 | 102 | 0.0 | 17.7 | 0.00 | 0.00 | 0.00 | 92 | 1011.1 |
| 20260506081437 | 23 | 229 | 6.4 | 9.7 | 0.00 | 0.00 | 0.00 | 92 | 1011.1 |
| 20260506080933 | 23 | 133 | 4.8 | 6.4 | 0.00 | 0.00 | 0.00 | 92 | 1010.6 |
| 20260506080430 | 23 | 173 | 4.8 | 11.3 | 0.00 | 0.00 | 0.00 | 91 | 1010.6 |
| 20260506073414 | 23 | 139 | 3.2 | 9.7 | 0.00 | 0.00 | 0.00 | 90 | 1011.2 |
| 20260506072912 | 23 | 117 | 1.6 | 20.9 | 0.00 | 0.00 | 0.00 | 90 | 1011.2 |
| 20260506072409 | 23 | 107 | 8.0 | 14.5 | 0.00 | 0.00 | 0.00 | 90 | 1011.5 |
| 20260506071906 | 23 | 105 | 1.6 | 11.3 | 0.00 | 0.00 | 0.00 | 90 | 1011.5 |
| 20260506071404 | 23 | 110 | 3.2 | 14.5 | 0.00 | 0.00 | 0.00 | 90 | 1011.8 |
| 20260506070901 | 23 | 199 | 9.7 | 17.7 | 0.00 | 0.00 | 0.00 | 90 | 1011.8 |
| 20260506070358 | 23 | 166 | 4.8 | 24.1 | 0.00 | 0.00 | 0.00 | 90 | 1012.0 |
| 20260506062335 | 23 | 132 | 4.8 | 9.7 | 0.00 | 0.00 | 0.00 | 90 | 1011.9 |
| 20260506061831 | 23 | 132 | 8.0 | 14.5 | 0.00 | 0.00 | 0.00 | 90 | 1011.9 |
| 20260506061328 | 23 | 121 | 1.6 | 6.4 | 0.00 | 0.00 | 0.00 | 90 | 1011.8 |
| 20260506060826 | 23 | 196 | 6.4 | 24.1 | 0.00 | 0.00 | 0.00 | 90 | 1011.9 |
| 20260506060324 | 23 | 209 | 8.0 | 9.7 | 0.00 | 0.00 | 0.00 | 90 | 1012.0 |
| 20260506051255 | 23 | 155 | 4.8 | 6.4 | 0.00 | 0.00 | 0.00 | 91 | 1011.8 |
| 20260506050753 | 23 | 139 | 6.4 | 14.5 | 0.00 | 0.00 | 0.00 | 92 | 1011.5 |
| 20260506050250 | 23 | 154 | 6.4 | 9.7 | 0.00 | 0.00 | 0.00 | 92 | 1011.4 |
| 20260506044741 | 23 | 116 | 4.8 | 6.4 | 0.00 | 0.00 | 0.00 | 92 | 1011.3 |
| 20260506044238 | 23 | 108 | 3.2 | 6.4 | 0.00 | 0.00 | 0.00 | 92 | 1011.3 |
| 20260506043735 | 23 | 89 | 4.8 | 9.7 | 0.00 | 0.00 | 0.00 | 92 | 1011.1 |
| 20260506043233 | 23 | 117 | 1.6 | 6.4 | 0.00 | 0.00 | 0.00 | 91 | 1011.2 |
| 20260506042731 | 23 | 143 | 3.2 | 17.7 | 0.00 | 0.00 | 0.00 | 92 | 1011.3 |
| 20260506042229 | 23 | 102 | 0.0 | 6.4 | 0.00 | 0.00 | 0.00 | 91 | 1011.4 |
| 20260506041728 | 23 | 128 | 6.4 | 17.7 | 0.00 | 0.00 | 0.00 | 91 | 1011.2 |
| 20260506041224 | 23 | 112 | 8.0 | 9.7 | 0.00 | 0.00 | 0.00 | 91 | 1011.3 |
| 20260506040722 | 23 | 111 | 1.6 | 6.4 | 0.00 | 0.00 | 0.00 | 91 | 1011.1 |
| 20260506040219 | 23 | 140 | 3.2 | 9.7 | 0.00 | 0.00 | 0.00 | 91 | 1011.5 |
| 20260506035715 | 23 | 158 | 8.0 | 11.3 | 0.00 | 0.00 | 0.00 | 91 | 1011.3 |
| 20260506035213 | 23 | 155 | 4.8 | 9.7 | 0.00 | 0.00 | 0.00 | 91 | 1011.4 |
| 20260506034709 | 23 | 101 | 1.6 | 14.5 | 0.00 | 0.00 | 0.00 | 91 | 1011.1 |
| 20260506034207 | 23 | 114 | 1.6 | 9.7 | 0.00 | 0.00 | 0.00 | 91 | 1010.6 |
| 20260506033704 | 23 | 107 | 4.8 | 6.4 | 0.00 | 0.00 | 0.00 | 91 | 1010.8 |
| 20260506033200 | 23 | 146 | 3.2 | 6.4 | 0.00 | 0.00 | 0.00 | 91 | 1011.1 |
| 20260506032658 | 23 | 110 | 1.6 | 6.4 | 0.00 | 0.00 | 0.00 | 91 | 1011.6 |
| 20260506032155 | 23 | 128 | 3.2 | 14.5 | 0.00 | 0.00 | 0.00 | 91 | 1011.5 |
| 20260506031651 | 23 | 132 | 3.2 | 9.7 | 0.00 | 0.00 | 0.00 | 91 | 1011.4 |
| 20260506031148 | 23 | 147 | 4.8 | 9.7 | 0.00 | 0.00 | 0.00 | 91 | 1011.5 |
| 20260506030647 | 23 | 112 | 3.2 | 6.4 | 0.00 | 0.00 | 0.00 | 90 | 1011.3 |
| 20260506030144 | 23 | 104 | 1.6 | 3.2 | 0.00 | 0.00 | 0.00 | 90 | 1011.2 |
| 20260506025640 | 23 | 122 | 0.0 | 6.4 | 0.00 | 0.00 | 0.00 | 90 | 1011.2 |
| 20260506025136 | 23 | 136 | 8.0 | 9.7 | 0.00 | 0.00 | 0.00 | 90 | 1011.1 |
| 20260506024634 | 23 | 160 | 6.4 | 14.5 | 0.00 | 0.00 | 0.00 | 90 | 1010.8 |
| 20260506024130 | 23 | 198 | 9.7 | 11.3 | 0.00 | 0.00 | 0.00 | 90 | 1010.9 |
| 20260506023627 | 23 | 118 | 3.2 | 6.4 | 0.00 | 0.00 | 0.00 | 90 | 1010.8 |
| 20260506023124 | 23 | 117 | 1.6 | 6.4 | 0.00 | 0.00 | 0.00 | 90 | 1010.9 |
| 20260506022621 | 23 | 141 | 6.4 | 9.7 | 0.00 | 0.00 | 0.00 | 90 | 1010.5 |
| 20260506022119 | 23 | 173 | 8.0 | 11.3 | 0.00 | 0.00 | 0.00 | 90 | 1010.2 |
| 20260506021616 | 24 | 108 | 1.6 | 6.4 | 0.00 | 0.00 | 0.00 | 90 | 1010.6 |
| 20260506021113 | 24 | 106 | 0.0 | 6.4 | 0.00 | 0.00 | 0.00 | 90 | 1010.2 |
| 20260506020610 | 24 | 139 | 3.2 | 6.4 | 0.00 | 0.00 | 0.00 | 89 | 1010.2 |
| 20260506020108 | 24 | 128 | 1.6 | 6.4 | 0.00 | 0.00 | 0.00 | 89 | 1010.3 |
| 20260506015605 | 24 | 104 | 0.0 | 3.2 | 0.00 | 0.00 | 0.00 | 89 | 1010.2 |
| 20260506015102 | 24 | 112 | 1.6 | 11.3 | 0.00 | 0.00 | 0.00 | 89 | 1010.4 |
| 20260506014600 | 24 | 108 | 3.2 | 11.3 | 0.00 | 0.00 | 0.00 | 88 | 1010.2 |
| 20260506014055 | 24 | 117 | 3.2 | 3.2 | 0.00 | 0.00 | 0.00 | 88 | 1010.3 |
| 20260506013554 | 24 | 200 | 6.4 | 9.7 | 0.00 | 0.00 | 0.00 | 88 | 1010.1 |
| 20260506013050 | 24 | 110 | 3.2 | 6.4 | 0.00 | 0.00 | 0.00 | 88 | 1009.9 |
| 20260506012546 | 25 | 123 | 4.8 | 9.7 | 0.00 | 0.00 | 0.00 | 88 | 1009.8 |
| 20260506012043 | 25 | 115 | 3.2 | 3.2 | 0.00 | 0.00 | 0.00 | 87 | 1009.6 |
| 20260506011541 | 25 | 107 | 0.0 | 3.2 | 0.00 | 0.00 | 0.00 | 87 | 1009.4 |
| 20260506011037 | 25 | 111 | 1.6 | 11.3 | 0.00 | 0.00 | 0.00 | 86 | 1009.5 |
| 20260506010536 | 25 | 112 | 1.6 | 9.7 | 0.00 | 0.00 | 0.00 | 86 | 1009.5 |
| 20260506010032 | 25 | 122 | 4.8 | 9.7 | 0.00 | 0.00 | 0.00 | 86 | 1009.6 |
| 20260506005530 | 25 | 155 | 3.2 | 6.4 | 0.00 | 0.00 | 0.00 | 86 | 1009.4 |
| 20260506005025 | 25 | 123 | 4.8 | 6.4 | 0.00 | 0.00 | 0.00 | 86 | 1009.7 |
| 20260506004523 | 25 | 115 | 3.2 | 9.7 | 0.00 | 0.00 | 0.00 | 85 | 1009.5 |
| 20260506004020 | 25 | 130 | 4.8 | 6.4 | 0.00 | 0.00 | 0.00 | 85 | 1009.6 |
| 20260506003516 | 25 | 110 | 0.0 | 3.2 | 0.00 | 0.00 | 0.00 | 84 | 1009.6 |
| 20260506003012 | 26 | 109 | 0.0 | 6.4 | 0.00 | 0.00 | 0.00 | 83 | 1009.4 |
| 20260506002508 | 26 | 132 | 4.8 | 6.4 | 0.00 | 0.00 | 0.00 | 83 | 1009.2 |
| 20260506002004 | 26 | 114 | 1.6 | 6.4 | 0.00 | 0.00 | 0.00 | 82 | 1009.3 |
| 20260506001501 | 26 | 111 | 0.0 | 3.2 | 0.00 | 0.00 | 0.00 | 81 | 1009.3 |
| 20260506000958 | 26 | 210 | 8.0 | 11.3 | 0.00 | 0.00 | 0.00 | 81 | 1009.1 |
| 20260506000455 | 26 | 116 | 1.6 | 17.7 | 0.00 | 0.00 | 0.00 | 81 | 1009.4 |
| 20260505235952 | 26 | 180 | 3.2 | 6.4 | 0.00 | 0.00 | 0.00 | 81 | 1009.5 |
| 20260505235451 | 26 | 140 | 4.8 | 9.7 | 0.00 | 0.00 | 0.00 | 80 | 1009.2 |
| 20260505234947 | 26 | 122 | 3.2 | 14.5 | 0.00 | 0.00 | 0.00 | 80 | 1009.3 |
| 20260505234444 | 27 | 95 | 4.8 | 24.1 | 0.00 | 0.00 | 0.00 | 79 | 1009.2 |
| 20260505233941 | 27 | 194 | 11.3 | 11.3 | 0.00 | 0.00 | 0.00 | 78 | 1009.3 |
| 20260505233439 | 27 | 145 | 3.2 | 11.3 | 0.00 | 0.00 | 0.00 | 78 | 1009.2 |
| 20260505232936 | 27 | 127 | 3.2 | 9.7 | 0.00 | 0.00 | 0.00 | 77 | 1008.9 |
| 20260505232434 | 27 | 136 | 4.8 | 11.3 | 0.00 | 0.00 | 0.00 | 76 | 1008.9 |
| 20260505231931 | 27 | 137 | 3.2 | 9.7 | 0.00 | 0.00 | 0.00 | 77 | 1009.0 |
| 20260505231428 | 27 | 170 | 6.4 | 14.5 | 0.00 | 0.00 | 0.00 | 76 | 1009.1 |
| 20260505230926 | 27 | 135 | 4.8 | 11.3 | 0.00 | 0.00 | 0.00 | 76 | 1009.0 |
| 20260505230423 | 27 | 112 | 4.8 | 24.1 | 0.00 | 0.00 | 0.00 | 76 | 1009.0 |
| 20260505225919 | 27 | 106 | 0.0 | 24.1 | 0.00 | 0.00 | 0.00 | 76 | 1009.1 |
| 20260505225417 | 27 | 136 | 3.2 | 14.5 | 0.00 | 0.00 | 0.00 | 75 | 1008.8 |
| 20260505224912 | 27 | 103 | 4.8 | 11.3 | 0.00 | 0.00 | 0.00 | 75 | 1009.0 |
| 20260505224410 | 27 | 134 | 3.2 | 9.7 | 0.00 | 0.00 | 0.00 | 76 | 1009.4 |
| 20260505223906 | 27 | 117 | 3.2 | 14.5 | 0.00 | 0.00 | 0.00 | 76 | 1009.1 |
| 20260505223404 | 27 | 252 | 8.0 | 9.7 | 0.00 | 0.00 | 0.00 | 74 | 1009.0 |
| 20260505222859 | 28 | 147 | 9.7 | 17.7 | 0.00 | 0.00 | 0.00 | 75 | 1009.3 |
| 20260505222356 | 28 | 170 | 3.2 | 9.7 | 0.00 | 0.00 | 0.00 | 74 | 1009.3 |
| 20260505221852 | 27 | 0 | 4.8 | 14.5 | 0.00 | 0.00 | 0.00 | 76 | 1009.3 |
| 20260505221350 | 27 | 101 | 4.8 | 11.3 | 0.00 | 0.00 | 0.00 | 76 | 1009.3 |
| 20260505220847 | 27 | 146 | 4.8 | 17.7 | 0.00 | 0.00 | 0.00 | 76 | 1009.4 |
| 20260505220344 | 27 | 137 | 1.6 | 6.4 | 0.00 | 0.00 | 0.00 | 75 | 1009.0 |
| 20260505215841 | 27 | 120 | 4.8 | 9.7 | 0.00 | 0.00 | 0.00 | 76 | 1009.4 |
| 20260505215339 | 27 | 119 | 6.4 | 20.9 | 0.00 | 0.00 | 0.00 | 76 | 1009.3 |
| 20260505214837 | 27 | 119 | 8.0 | 14.5 | 0.00 | 0.00 | 0.00 | 76 | 1009.3 |
| 20260505214334 | 27 | 107 | 3.2 | 17.7 | 0.00 | 0.00 | 0.00 | 76 | 1009.7 |
| 20260505213831 | 27 | 234 | 8.0 | 17.7 | 0.00 | 0.00 | 0.00 | 76 | 1009.6 |
| 20260505213329 | 27 | 195 | 11.3 | 14.5 | 0.00 | 0.00 | 0.00 | 75 | 1009.3 |
| 20260505212825 | 27 | 119 | 9.7 | 11.3 | 0.00 | 0.00 | 0.00 | 76 | 1009.7 |
| 20260505212322 | 26 | 128 | 4.8 | 24.1 | 0.00 | 0.00 | 0.00 | 78 | 1009.7 |
| 20260505211818 | 26 | 167 | 3.2 | 20.9 | 0.00 | 0.00 | 0.00 | 78 | 1010.0 |
| 20260505211316 | 26 | 123 | 3.2 | 6.4 | 0.00 | 0.00 | 0.00 | 79 | 1010.0 |
| 20260505210812 | 26 | 179 | 6.4 | 11.3 | 0.00 | 0.00 | 0.00 | 79 | 1010.3 |
| 20260505210309 | 26 | 224 | 6.4 | 17.7 | 0.00 | 0.00 | 0.00 | 78 | 1009.9 |
| 20260505205806 | 26 | 165 | 6.4 | 24.1 | 0.00 | 0.00 | 0.00 | 77 | 1009.8 |
| 20260505205305 | 27 | 99 | 1.6 | 9.7 | 0.00 | 0.00 | 0.00 | 77 | 1009.8 |
| 20260505204801 | 27 | 185 | 16.1 | 24.1 | 0.00 | 0.00 | 0.00 | 76 | 1009.7 |
| 20260505204259 | 27 | 164 | 12.9 | 45.1 | 0.00 | 0.00 | 0.00 | 75 | 1009.7 |
| 20260505203756 | 27 | 200 | 6.4 | 27.4 | 0.00 | 0.00 | 0.00 | 76 | 1009.8 |
| 20260505203253 | 27 | 144 | 11.3 | 27.4 | 0.00 | 0.00 | 0.00 | 76 | 1009.9 |
| 20260505202749 | 27 | 106 | 1.6 | 9.7 | 0.00 | 0.00 | 0.00 | 76 | 1009.9 |
| 20260505202245 | 26 | 193 | 8.0 | 17.7 | 0.00 | 0.00 | 0.00 | 77 | 1009.9 |
| 20260505201741 | 27 | 109 | 3.2 | 11.3 | 0.00 | 0.00 | 0.00 | 76 | 1009.9 |
| 20260505201239 | 27 | 168 | 4.8 | 6.4 | 0.00 | 0.00 | 0.00 | 76 | 1009.9 |
| 20260505200737 | 27 | 186 | 6.4 | 14.5 | 0.00 | 0.00 | 0.00 | 76 | 1010.0 |
| 20260505200235 | 26 | 198 | 11.3 | 17.7 | 0.00 | 0.00 | 0.00 | 77 | 1010.3 |
| 20260505195729 | 26 | 181 | 4.8 | 11.3 | 0.00 | 0.00 | 0.00 | 78 | 1010.3 |
| 20260505195227 | 26 | 107 | 12.9 | 27.4 | 0.00 | 0.00 | 0.00 | 77 | 1010.5 |
| 20260505194724 | 27 | 193 | 17.7 | 27.4 | 0.00 | 0.00 | 0.00 | 76 | 1010.4 |
| 20260505194220 | 26 | 236 | 14.5 | 17.7 | 0.00 | 0.00 | 0.00 | 77 | 1010.5 |
| 20260505193716 | 26 | 128 | 3.2 | 20.9 | 0.00 | 0.00 | 0.00 | 79 | 1010.6 |
| 20260505193214 | 26 | 218 | 14.5 | 30.6 | 0.00 | 0.00 | 0.00 | 78 | 1010.7 |
| 20260505192713 | 26 | 277 | 11.3 | 17.7 | 0.00 | 0.00 | 0.00 | 79 | 1010.8 |
| 20260505192210 | 25 | 227 | 8.0 | 17.7 | 0.00 | 0.00 | 0.00 | 80 | 1010.8 |
| 20260505191708 | 25 | 168 | 16.1 | 27.4 | 0.00 | 0.00 | 0.00 | 80 | 1010.9 |
| 20260505191206 | 25 | 215 | 20.9 | 24.1 | 0.00 | 0.00 | 0.00 | 80 | 1011.2 |
| 20260505190702 | 25 | 177 | 12.9 | 14.5 | 0.00 | 0.00 | 0.00 | 80 | 1011.1 |
| 20260505190201 | 26 | 205 | 8.0 | 17.7 | 0.00 | 0.00 | 0.00 | 79 | 1010.8 |
| 20260505185659 | 26 | 146 | 6.4 | 17.7 | 0.00 | 0.00 | 0.00 | 79 | 1011.1 |
| 20260505185155 | 26 | 153 | 3.2 | 24.1 | 0.00 | 0.00 | 0.00 | 79 | 1010.8 |